TRA21Q LGMK-EHAM
Flight info
| Callsign | TRA21Q |
|---|---|
| Flight time | N/A |
| Altitude | 38000 |
| Route | VARIX UL995 KEA UN132 ROPOX UM749 SKP UL617 MAKED DCT LONTA UL608 DOLEV DCT OBUTI DCT DEXIT DCT MAPOX DCT NORKU |
| Aircraft | B738/M-SDE2E3FGHIJ1RWXYZ/LB1 |
Departure
| Time | 2026-04-25 08:06 |
|---|---|
| Airport | Mykonos Island National Airport (LGMK) |
Arrival
| Time | N/A |
|---|---|
| Airport | Amsterdam Airport Schiphol (EHAM) |
| Time | Latitude | Longitude | Altitude | Speed | Heading |
|---|---|---|---|---|---|
| 2026-04-25 07:26 | 37.43465 | 25.34666 | 406 ft | 0 kts | 251° |
| 2026-04-25 07:59 | 37.43467 | 25.34672 | 406 ft | 4 kts | 250° |
| 2026-04-25 07:59 | 37.43479 | 25.34700 | 405 ft | 4 kts | 221° |
| 2026-04-25 08:00 | 37.43493 | 25.34711 | 407 ft | 4 kts | 188° |
| 2026-04-25 08:00 | 37.43508 | 25.34710 | 404 ft | 0 kts | 161° |
| 2026-04-25 08:03 | 37.43496 | 25.34715 | 402 ft | 4 kts | 161° |
| 2026-04-25 08:03 | 37.43450 | 25.34735 | 407 ft | 10 kts | 158° |
| 2026-04-25 08:03 | 37.43403 | 25.34818 | 409 ft | 13 kts | 114° |
| 2026-04-25 08:04 | 37.43334 | 25.34902 | 412 ft | 16 kts | 160° |
| 2026-04-25 08:04 | 37.43212 | 25.34956 | 412 ft | 21 kts | 161° |
| 2026-04-25 08:04 | 37.43059 | 25.35025 | 413 ft | 25 kts | 161° |
| 2026-04-25 08:04 | 37.42892 | 25.35099 | 412 ft | 24 kts | 160° |
| 2026-04-25 08:05 | 37.42792 | 25.35149 | 410 ft | 13 kts | 142° |
| 2026-04-25 08:05 | 37.42737 | 25.35185 | 409 ft | 5 kts | 223° |
| 2026-04-25 08:05 | 37.42753 | 25.35160 | 409 ft | 0 kts | 338° |
| 2026-04-25 08:06 | 37.42786 | 25.35144 | 410 ft | 24 kts | 340° |
| 2026-04-25 08:06 | 37.43191 | 25.34965 | 411 ft | 98 kts | 341° |
| 2026-04-25 08:06 | 37.44032 | 25.34594 | 464 ft | 152 kts | 342° |
| 2026-04-25 08:06 | 37.45000 | 25.33981 | 1128 ft | 164 kts | 325° |
| 2026-04-25 08:07 | 37.45913 | 25.33073 | 1950 ft | 170 kts | 335° |
| 2026-04-25 08:07 | 37.46930 | 25.32170 | 2486 ft | 200 kts | 314° |
| 2026-04-25 08:07 | 37.47497 | 25.30426 | 2785 ft | 238 kts | 274° |
| 2026-04-25 08:07 | 37.47342 | 25.28275 | 3153 ft | 258 kts | 268° |
| 2026-04-25 08:08 | 37.47417 | 25.25942 | 3615 ft | 273 kts | 278° |
| 2026-04-25 08:08 | 37.47631 | 25.23556 | 4491 ft | 276 kts | 278° |
| 2026-04-25 08:08 | 37.47853 | 25.21129 | 5288 ft | 282 kts | 277° |
| 2026-04-25 08:08 | 37.48079 | 25.18653 | 6146 ft | 286 kts | 277° |
| 2026-04-25 08:09 | 37.48304 | 25.16161 | 6964 ft | 289 kts | 276° |
| 2026-04-25 08:09 | 37.48533 | 25.13622 | 7755 ft | 294 kts | 276° |
| 2026-04-25 08:09 | 37.48763 | 25.11052 | 8553 ft | 297 kts | 276° |
| 2026-04-25 08:09 | 37.48992 | 25.08483 | 9330 ft | 301 kts | 276° |
| 2026-04-25 08:10 | 37.49230 | 25.05806 | 10118 ft | 306 kts | 276° |
| 2026-04-25 08:10 | 37.49470 | 25.03084 | 10517 ft | 324 kts | 276° |
| 2026-04-25 08:10 | 37.49724 | 25.00202 | 10694 ft | 348 kts | 276° |
| 2026-04-25 08:10 | 37.49997 | 24.97096 | 11072 ft | 363 kts | 276° |
| 2026-04-25 08:11 | 37.50276 | 24.93914 | 11721 ft | 369 kts | 276° |
| 2026-04-25 08:11 | 37.50558 | 24.90689 | 12495 ft | 371 kts | 276° |
| 2026-04-25 08:11 | 37.50841 | 24.87444 | 13279 ft | 374 kts | 276° |
| 2026-04-25 08:11 | 37.51125 | 24.84170 | 13981 ft | 379 kts | 276° |
| 2026-04-25 08:12 | 37.51412 | 24.80859 | 14619 ft | 382 kts | 276° |
| 2026-04-25 08:12 | 37.51700 | 24.77512 | 15262 ft | 386 kts | 276° |
| 2026-04-25 08:12 | 37.51990 | 24.74131 | 15880 ft | 390 kts | 276° |
| 2026-04-25 08:12 | 37.52282 | 24.70722 | 16514 ft | 394 kts | 276° |
| 2026-04-25 08:13 | 37.52577 | 24.67266 | 17132 ft | 398 kts | 276° |
| 2026-04-25 08:13 | 37.52874 | 24.63779 | 17732 ft | 402 kts | 276° |
| 2026-04-25 08:13 | 37.53172 | 24.60258 | 18339 ft | 406 kts | 276° |
| 2026-04-25 08:14 | 37.53773 | 24.53132 | 19430 ft | 412 kts | 276° |
| 2026-04-25 08:14 | 37.54075 | 24.49524 | 19960 ft | 415 kts | 276° |
| 2026-04-25 08:14 | 37.54378 | 24.45896 | 20476 ft | 419 kts | 276° |
| 2026-04-25 08:14 | 37.54684 | 24.42229 | 21000 ft | 422 kts | 276° |
| 2026-04-25 08:15 | 37.54989 | 24.38543 | 21501 ft | 425 kts | 276° |
| 2026-04-25 08:15 | 37.55309 | 24.34823 | 22001 ft | 428 kts | 279° |
| 2026-04-25 08:15 | 37.56169 | 24.31239 | 22433 ft | 430 kts | 298° |
| 2026-04-25 08:15 | 37.57858 | 24.28140 | 22943 ft | 429 kts | 315° |
| 2026-04-25 08:16 | 37.60165 | 24.25787 | 23444 ft | 428 kts | 328° |
| 2026-04-25 08:16 | 37.62637 | 24.23689 | 23899 ft | 430 kts | 328° |
| 2026-04-25 08:16 | 37.65136 | 24.21597 | 24303 ft | 432 kts | 328° |
| 2026-04-25 08:16 | 37.67644 | 24.19489 | 24734 ft | 434 kts | 328° |
| 2026-04-25 08:17 | 37.70120 | 24.17384 | 25141 ft | 435 kts | 327° |
| 2026-04-25 08:17 | 37.72632 | 24.15227 | 25537 ft | 438 kts | 327° |
| 2026-04-25 08:17 | 37.75149 | 24.13051 | 25944 ft | 440 kts | 327° |
| 2026-04-25 08:17 | 37.77677 | 24.10854 | 26340 ft | 442 kts | 326° |
| 2026-04-25 08:18 | 37.80208 | 24.08650 | 26746 ft | 443 kts | 326° |
| 2026-04-25 08:18 | 37.82748 | 24.06434 | 27154 ft | 444 kts | 326° |
| 2026-04-25 08:18 | 37.85293 | 24.04213 | 27553 ft | 445 kts | 326° |
| 2026-04-25 08:18 | 37.87848 | 24.01982 | 27932 ft | 447 kts | 326° |
| 2026-04-25 08:19 | 37.90408 | 23.99746 | 28300 ft | 448 kts | 325° |